This is the latest recevied weather packets stored in our database for station/object KI4NG. If no packets are shown the sender has not sent any weather packets the latest 10 day(s).
| Time | Temp. | Humidity | Pressure | Rain* | Wind** | Luminosity | Snow |
|---|---|---|---|---|---|---|---|
| 1787869868 | 29.44° C | 67% | 1016.2 hPa | 0 mm | - | 183 W/m² | - |
| 1787869566 | 28.89° C | 65% | 1016.4 hPa | 0 mm | - | 215 W/m² | - |
| 1787869262 | 29.44° C | 66% | 1016.1 hPa | 0 mm | - | 207 W/m² | - |
| 1787868960 | 29.44° C | 64% | 1016.2 hPa | 0 mm | - | 212 W/m² | - |
| 1787868655 | 29.44° C | 64% | 1016.4 hPa | 0 mm | - | 235 W/m² | - |
| 1787868353 | 28.89° C | 64% | 1016.4 hPa | 0 mm | - | 288 W/m² | - |
| 1787868049 | 28.89° C | 67% | 1016.4 hPa | 0 mm | - | 267 W/m² | - |
| 1787867744 | 28.33° C | 70% | 1016.5 hPa | 0 mm | - | 111 W/m² | - |
| 1787867439 | 28.89° C | 67% | 1016.5 hPa | 0 mm | - | 119 W/m² | - |
| 1787867134 | 27.78° C | 70% | 1016.1 hPa | 0 mm | - | 390 W/m² | - |
| 1787866830 | 27.78° C | 71% | 1016.2 hPa | 0 mm | - | 120 W/m² | - |
| 1787866524 | 28.89° C | 68% | 1016 hPa | 0 mm | - | 120 W/m² | - |
| 1787866223 | 29.44° C | 68% | 1016.2 hPa | 0 mm | - | 180 W/m² | - |
| 1787865918 | 28.33° C | 69% | 1016.4 hPa | 0 mm | - | 449 W/m² | - |
| 1787865614 | 28.89° C | 69% | 1016.4 hPa | 0 mm | - | 191 W/m² | - |
| 1787865313 | 29.44° C | 67% | 1016.1 hPa | 0 mm | - | 210 W/m² | - |
| 1787865009 | 30.56° C | 61% | 1016.1 hPa | 0 mm | - | 172 W/m² | - |
| 1787864705 | 30° C | 62% | 1016 hPa | 0 mm | - | 530 W/m² | - |
| 1787864404 | 30° C | 62% | 1016.5 hPa | 0 mm | - | 288 W/m² | - |
| 1787864098 | 29.44° C | 63% | 1016.2 hPa | 0 mm | - | 561 W/m² | - |
| 1787863797 | 28.33° C | 69% | 1016.5 hPa | 0 mm | - | 296 W/m² | - |
| 1787863496 | 28.33° C | 64% | 1016.5 hPa | 0 mm | - | 142 W/m² | - |
| 1787863193 | 28.33° C | 67% | 1016.4 hPa | 0 mm | - | 144 W/m² | - |
| 1787862888 | 27.78° C | 68% | 1016.5 hPa | 0 mm | - | 134 W/m² | - |
| 1787862587 | 28.33° C | 67% | 1016.6 hPa | 0 mm | - | 129 W/m² | - |
* Rain latest hour (hover to see other rain measurements)
** Current wind speed in m/s (hover to see current wind gust speed)